sensor_id;sensor_type;location;lat;lon;timestamp;pressure;altitude;pressure_sealevel;temperature;humidity
28588;BME280;15787;49.662;10.162;2023-01-19T00:00:15;98052.47;;;-4.84;96.46
28588;BME280;15787;49.662;10.162;2023-01-19T00:02:50;98054.53;;;-5.12;96.44
28588;BME280;15787;49.662;10.162;2023-01-19T00:05:23;98055.25;;;-4.80;96.62
28588;BME280;15787;49.662;10.162;2023-01-19T00:07:56;98049.50;;;-5.10;96.47
28588;BME280;15787;49.662;10.162;2023-01-19T00:10:48;98054.09;;;-5.45;96.61
28588;BME280;15787;49.662;10.162;2023-01-19T00:13:21;98059.06;;;-5.63;97.43
28588;BME280;15787;49.662;10.162;2023-01-19T00:15:54;98066.72;;;-5.53;97.93
28588;BME280;15787;49.662;10.162;2023-01-19T00:18:29;98070.75;;;-5.62;98.82
28588;BME280;15787;49.662;10.162;2023-01-19T00:21:01;98064.88;;;-5.33;98.42
28588;BME280;15787;49.662;10.162;2023-01-19T00:23:34;98070.94;;;-5.08;98.21
28588;BME280;15787;49.662;10.162;2023-01-19T00:26:07;98067.59;;;-5.33;98.10
28588;BME280;15787;49.662;10.162;2023-01-19T00:28:41;98063.19;;;-4.91;97.99
28588;BME280;15787;49.662;10.162;2023-01-19T00:31:14;98060.22;;;-5.17;97.95
28588;BME280;15787;49.662;10.162;2023-01-19T00:33:49;98060.81;;;-4.92;96.69
28588;BME280;15787;49.662;10.162;2023-01-19T00:36:23;98070.19;;;-4.74;96.47
28588;BME280;15787;49.662;10.162;2023-01-19T00:38:56;98066.91;;;-4.64;94.71
28588;BME280;15787;49.662;10.162;2023-01-19T00:41:29;98067.69;;;-5.30;95.67
28588;BME280;15787;49.662;10.162;2023-01-19T00:44:19;98068.81;;;-5.31;94.84
28588;BME280;15787;49.662;10.162;2023-01-19T00:46:52;98071.25;;;-4.79;95.27
28588;BME280;15787;49.662;10.162;2023-01-19T00:49:26;98077.69;;;-5.34;93.59
28588;BME280;15787;49.662;10.162;2023-01-19T00:51:59;98068.97;;;-5.70;94.52
28588;BME280;15787;49.662;10.162;2023-01-19T00:54:32;98071.97;;;-5.29;95.34
28588;BME280;15787;49.662;10.162;2023-01-19T00:57:05;98073.03;;;-4.86;96.27
28588;BME280;15787;49.662;10.162;2023-01-19T00:59:37;98073.72;;;-4.89;95.43
28588;BME280;15787;49.662;10.162;2023-01-19T01:02:10;98065.03;;;-4.95;96.83
28588;BME280;15787;49.662;10.162;2023-01-19T01:04:45;98068.91;;;-4.45;97.82
28588;BME280;15787;49.662;10.162;2023-01-19T01:07:18;98077.22;;;-4.73;95.95
28588;BME280;15787;49.662;10.162;2023-01-19T01:09:51;98075.75;;;-5.02;95.04
28588;BME280;15787;49.662;10.162;2023-01-19T01:12:24;98074.38;;;-4.96;94.84
28588;BME280;15787;49.662;10.162;2023-01-19T01:14:57;98077.72;;;-4.68;94.85
28588;BME280;15787;49.662;10.162;2023-01-19T01:17:30;98082.28;;;-4.37;94.37
28588;BME280;15787;49.662;10.162;2023-01-19T01:20:05;98091.53;;;-4.41;93.76
28588;BME280;15787;49.662;10.162;2023-01-19T01:22:37;98090.03;;;-4.39;94.09
28588;BME280;15787;49.662;10.162;2023-01-19T01:25:12;98086.47;;;-4.24;93.98
28588;BME280;15787;49.662;10.162;2023-01-19T01:27:45;98086.78;;;-4.10;94.09
28588;BME280;15787;49.662;10.162;2023-01-19T01:30:18;98083.19;;;-4.14;93.35
28588;BME280;15787;49.662;10.162;2023-01-19T01:32:51;98088.00;;;-4.07;93.29
28588;BME280;15787;49.662;10.162;2023-01-19T01:35:25;98084.34;;;-4.15;93.82
28588;BME280;15787;49.662;10.162;2023-01-19T01:37:59;98077.16;;;-4.04;93.85
28588;BME280;15787;49.662;10.162;2023-01-19T01:40:32;98080.13;;;-4.12;94.34
28588;BME280;15787;49.662;10.162;2023-01-19T01:43:09;98076.81;;;-4.02;93.81
28588;BME280;15787;49.662;10.162;2023-01-19T01:45:43;98090.44;;;-4.02;93.63
28588;BME280;15787;49.662;10.162;2023-01-19T01:48:19;98085.84;;;-4.17;93.09
28588;BME280;15787;49.662;10.162;2023-01-19T01:50:57;98097.00;;;-5.07;91.22
28588;BME280;15787;49.662;10.162;2023-01-19T01:53:54;98094.97;;;-4.95;91.55
28588;BME280;15787;49.662;10.162;2023-01-19T01:56:34;98091.91;;;-5.84;91.64
28588;BME280;15787;49.662;10.162;2023-01-19T01:59:11;98093.03;;;-4.79;92.60
28588;BME280;15787;49.662;10.162;2023-01-19T02:01:59;98105.38;;;-4.50;93.05
28588;BME280;15787;49.662;10.162;2023-01-19T02:04:53;98094.50;;;-4.31;93.89
28588;BME280;15787;49.662;10.162;2023-01-19T02:07:34;98102.81;;;-4.24;94.17
28588;BME280;15787;49.662;10.162;2023-01-19T02:10:27;98098.03;;;-4.30;95.37
28588;BME280;15787;49.662;10.162;2023-01-19T02:13:17;98100.66;;;-3.99;95.79
28588;BME280;15787;49.662;10.162;2023-01-19T02:15:55;98101.34;;;-4.02;95.57
28588;BME280;15787;49.662;10.162;2023-01-19T02:18:30;98100.47;;;-3.68;95.62
28588;BME280;15787;49.662;10.162;2023-01-19T02:21:10;98100.56;;;-4.03;94.83
28588;BME280;15787;49.662;10.162;2023-01-19T02:23:46;98107.81;;;-4.10;95.31
28588;BME280;15787;49.662;10.162;2023-01-19T02:26:21;98103.94;;;-3.90;95.19
28588;BME280;15787;49.662;10.162;2023-01-19T02:28:58;98104.78;;;-4.05;95.18
28588;BME280;15787;49.662;10.162;2023-01-19T02:31:32;98101.47;;;-3.76;95.80
28588;BME280;15787;49.662;10.162;2023-01-19T02:34:07;98101.25;;;-3.67;94.83
28588;BME280;15787;49.662;10.162;2023-01-19T02:36:44;98099.84;;;-3.61;94.50
28588;BME280;15787;49.662;10.162;2023-01-19T02:39:24;98106.28;;;-3.89;93.22
28588;BME280;15787;49.662;10.162;2023-01-19T02:42:01;98109.59;;;-3.79;93.25
28588;BME280;15787;49.662;10.162;2023-01-19T02:44:37;98108.44;;;-3.78;92.86
28588;BME280;15787;49.662;10.162;2023-01-19T02:47:11;98112.59;;;-4.23;92.68
28588;BME280;15787;49.662;10.162;2023-01-19T02:49:53;98113.53;;;-4.15;93.00
28588;BME280;15787;49.662;10.162;2023-01-19T02:52:26;98114.63;;;-4.01;93.85
28588;BME280;15787;49.662;10.162;2023-01-19T02:55:08;98114.75;;;-3.94;94.09
28588;BME280;15787;49.662;10.162;2023-01-19T02:57:56;98110.91;;;-3.93;94.27
28588;BME280;15787;49.662;10.162;2023-01-19T03:00:37;98099.28;;;-3.90;95.24
28588;BME280;15787;49.662;10.162;2023-01-19T03:03:22;98090.09;;;-3.81;95.99
28588;BME280;15787;49.662;10.162;2023-01-19T03:06:03;98098.47;;;-3.71;96.24
28588;BME280;15787;49.662;10.162;2023-01-19T03:08:42;98106.81;;;-3.64;96.41
28588;BME280;15787;49.662;10.162;2023-01-19T03:11:19;98108.38;;;-3.82;96.21
28588;BME280;15787;49.662;10.162;2023-01-19T03:13:53;98106.09;;;-3.80;96.55
28588;BME280;15787;49.662;10.162;2023-01-19T03:16:36;98101.72;;;-3.85;96.32
28588;BME280;15787;49.662;10.162;2023-01-19T03:19:14;98108.81;;;-3.99;96.62
28588;BME280;15787;49.662;10.162;2023-01-19T03:21:54;98105.88;;;-3.71;96.84
28588;BME280;15787;49.662;10.162;2023-01-19T03:24:30;98100.13;;;-3.66;96.82
28588;BME280;15787;49.662;10.162;2023-01-19T03:27:11;98111.63;;;-3.76;96.12
28588;BME280;15787;49.662;10.162;2023-01-19T03:29:48;98103.13;;;-3.91;94.99
28588;BME280;15787;49.662;10.162;2023-01-19T03:32:27;98105.34;;;-3.96;95.59
28588;BME280;15787;49.662;10.162;2023-01-19T03:35:05;98104.31;;;-3.92;96.36
28588;BME280;15787;49.662;10.162;2023-01-19T03:37:42;98110.97;;;-3.70;97.01
28588;BME280;15787;49.662;10.162;2023-01-19T03:40:16;98110.28;;;-3.44;96.76
28588;BME280;15787;49.662;10.162;2023-01-19T03:42:51;98109.56;;;-3.41;96.28
28588;BME280;15787;49.662;10.162;2023-01-19T03:45:24;98102.91;;;-3.63;95.79
28588;BME280;15787;49.662;10.162;2023-01-19T03:47:58;98103.75;;;-4.35;96.13
28588;BME280;15787;49.662;10.162;2023-01-19T03:50:31;98104.88;;;-3.83;96.76
28588;BME280;15787;49.662;10.162;2023-01-19T03:53:09;98098.41;;;-3.74;96.87
28588;BME280;15787;49.662;10.162;2023-01-19T03:55:44;98112.69;;;-3.62;96.86
28588;BME280;15787;49.662;10.162;2023-01-19T03:58:19;98115.25;;;-3.50;96.60
28588;BME280;15787;49.662;10.162;2023-01-19T04:00:53;98121.00;;;-3.55;96.51
28588;BME280;15787;49.662;10.162;2023-01-19T04:03:26;98117.25;;;-3.66;96.81
28588;BME280;15787;49.662;10.162;2023-01-19T04:05:59;98120.56;;;-3.76;96.90
28588;BME280;15787;49.662;10.162;2023-01-19T04:08:32;98115.91;;;-3.75;96.86
28588;BME280;15787;49.662;10.162;2023-01-19T04:11:05;98116.88;;;-3.45;95.98
28588;BME280;15787;49.662;10.162;2023-01-19T04:13:40;98120.22;;;-3.33;95.93
28588;BME280;15787;49.662;10.162;2023-01-19T04:16:14;98121.31;;;-3.37;94.68
28588;BME280;15787;49.662;10.162;2023-01-19T04:18:50;98126.44;;;-3.36;93.97
28588;BME280;15787;49.662;10.162;2023-01-19T04:21:24;98116.00;;;-3.72;93.61
28588;BME280;15787;49.662;10.162;2023-01-19T04:23:57;98126.38;;;-3.58;93.70
28588;BME280;15787;49.662;10.162;2023-01-19T04:26:30;98119.22;;;-3.66;94.51
28588;BME280;15787;49.662;10.162;2023-01-19T04:29:04;98117.16;;;-3.92;94.68
28588;BME280;15787;49.662;10.162;2023-01-19T04:31:37;98122.25;;;-3.71;95.12
28588;BME280;15787;49.662;10.162;2023-01-19T04:34:10;98126.03;;;-3.76;95.30
28588;BME280;15787;49.662;10.162;2023-01-19T04:36:43;98127.19;;;-3.77;95.69
28588;BME280;15787;49.662;10.162;2023-01-19T04:39:17;98132.34;;;-3.72;95.28
28588;BME280;15787;49.662;10.162;2023-01-19T04:41:50;98136.50;;;-3.97;94.68
28588;BME280;15787;49.662;10.162;2023-01-19T04:44:25;98125.25;;;-3.96;95.53
28588;BME280;15787;49.662;10.162;2023-01-19T04:46:58;98132.78;;;-3.89;95.23
28588;BME280;15787;49.662;10.162;2023-01-19T04:49:32;98129.84;;;-3.80;94.93
28588;BME280;15787;49.662;10.162;2023-01-19T04:52:08;98137.84;;;-4.07;95.32
28588;BME280;15787;49.662;10.162;2023-01-19T04:54:40;98128.28;;;-3.81;94.84
28588;BME280;15787;49.662;10.162;2023-01-19T04:57:13;98119.56;;;-3.68;95.41
28588;BME280;15787;49.662;10.162;2023-01-19T04:59:47;98122.94;;;-3.74;95.56
28588;BME280;15787;49.662;10.162;2023-01-19T05:02:20;98117.00;;;-3.80;96.94
28588;BME280;15787;49.662;10.162;2023-01-19T05:04:54;98120.09;;;-3.40;97.76
28588;BME280;15787;49.662;10.162;2023-01-19T05:07:27;98122.72;;;-3.66;98.46
28588;BME280;15787;49.662;10.162;2023-01-19T05:10:00;98124.00;;;-3.41;97.96
28588;BME280;15787;49.662;10.162;2023-01-19T05:12:32;98115.75;;;-3.22;98.21
28588;BME280;15787;49.662;10.162;2023-01-19T05:15:10;98136.09;;;-3.19;97.30
28588;BME280;15787;49.662;10.162;2023-01-19T05:17:44;98127.91;;;-3.19;96.71
28588;BME280;15787;49.662;10.162;2023-01-19T05:20:17;98133.28;;;-3.23;96.49
28588;BME280;15787;49.662;10.162;2023-01-19T05:22:51;98131.94;;;-3.32;96.90
28588;BME280;15787;49.662;10.162;2023-01-19T05:25:24;98131.53;;;-3.11;97.06
28588;BME280;15787;49.662;10.162;2023-01-19T05:27:57;98134.47;;;-3.24;97.81
28588;BME280;15787;49.662;10.162;2023-01-19T05:30:31;98142.78;;;-2.94;97.34
28588;BME280;15787;49.662;10.162;2023-01-19T05:33:04;98149.63;;;-3.26;96.87
28588;BME280;15787;49.662;10.162;2023-01-19T05:35:37;98154.38;;;-3.00;97.16
28588;BME280;15787;49.662;10.162;2023-01-19T05:38:10;98157.22;;;-3.16;96.87
28588;BME280;15787;49.662;10.162;2023-01-19T05:40:45;98155.81;;;-2.84;96.46
28588;BME280;15787;49.662;10.162;2023-01-19T05:43:18;98158.47;;;-2.87;96.11
28588;BME280;15787;49.662;10.162;2023-01-19T05:45:52;98152.38;;;-2.81;95.61
28588;BME280;15787;49.662;10.162;2023-01-19T05:48:25;98157.75;;;-3.49;95.57
28588;BME280;15787;49.662;10.162;2023-01-19T05:50:58;98169.66;;;-3.38;95.43
28588;BME280;15787;49.662;10.162;2023-01-19T05:53:32;98161.25;;;-3.48;94.93
28588;BME280;15787;49.662;10.162;2023-01-19T05:56:07;98158.97;;;-3.46;95.27
28588;BME280;15787;49.662;10.162;2023-01-19T05:58:40;98173.19;;;-3.37;94.52
28588;BME280;15787;49.662;10.162;2023-01-19T06:01:14;98167.75;;;-3.56;96.03
28588;BME280;15787;49.662;10.162;2023-01-19T06:03:47;98170.66;;;-3.46;96.87
28588;BME280;15787;49.662;10.162;2023-01-19T06:06:20;98168.34;;;-3.25;97.70
28588;BME280;15787;49.662;10.162;2023-01-19T06:08:54;98171.88;;;-3.24;96.77
28588;BME280;15787;49.662;10.162;2023-01-19T06:11:27;98172.88;;;-3.13;97.40
28588;BME280;15787;49.662;10.162;2023-01-19T06:14:00;98178.06;;;-3.27;97.46
28588;BME280;15787;49.662;10.162;2023-01-19T06:16:34;98178.44;;;-3.29;97.47
28588;BME280;15787;49.662;10.162;2023-01-19T06:19:07;98175.44;;;-3.01;97.44
28588;BME280;15787;49.662;10.162;2023-01-19T06:21:40;98185.44;;;-3.08;95.82
28588;BME280;15787;49.662;10.162;2023-01-19T06:24:19;98182.03;;;-3.02;95.68
28588;BME280;15787;49.662;10.162;2023-01-19T06:26:54;98177.97;;;-3.11;95.41
28588;BME280;15787;49.662;10.162;2023-01-19T06:29:27;98186.75;;;-2.80;95.10
28588;BME280;15787;49.662;10.162;2023-01-19T06:32:01;98184.31;;;-3.27;94.89
28588;BME280;15787;49.662;10.162;2023-01-19T06:34:34;98180.66;;;-3.34;95.51
28588;BME280;15787;49.662;10.162;2023-01-19T06:37:12;98180.16;;;-2.98;94.76
28588;BME280;15787;49.662;10.162;2023-01-19T06:39:47;98185.19;;;-3.00;94.23
28588;BME280;15787;49.662;10.162;2023-01-19T06:42:20;98177.25;;;-3.08;94.03
28588;BME280;15787;49.662;10.162;2023-01-19T06:44:53;98189.50;;;-2.99;94.56
28588;BME280;15787;49.662;10.162;2023-01-19T06:47:27;98190.78;;;-3.15;94.85
28588;BME280;15787;49.662;10.162;2023-01-19T06:50:00;98200.69;;;-2.85;93.82
28588;BME280;15787;49.662;10.162;2023-01-19T06:52:34;98198.41;;;-3.02;93.96
28588;BME280;15787;49.662;10.162;2023-01-19T06:55:13;98198.50;;;-3.17;94.48
28588;BME280;15787;49.662;10.162;2023-01-19T06:57:46;98203.03;;;-3.06;94.04
28588;BME280;15787;49.662;10.162;2023-01-19T07:00:20;98206.66;;;-3.21;94.96
28588;BME280;15787;49.662;10.162;2023-01-19T07:02:54;98198.16;;;-3.16;96.16
28588;BME280;15787;49.662;10.162;2023-01-19T07:05:27;98198.50;;;-2.98;96.51
28588;BME280;15787;49.662;10.162;2023-01-19T07:08:00;98201.63;;;-2.77;96.66
28588;BME280;15787;49.662;10.162;2023-01-19T07:10:33;98202.69;;;-2.59;98.02
28588;BME280;15787;49.662;10.162;2023-01-19T07:13:26;98195.25;;;-2.62;98.73
28588;BME280;15787;49.662;10.162;2023-01-19T07:16:03;98193.41;;;-2.54;100.00
28588;BME280;15787;49.662;10.162;2023-01-19T07:18:40;98197.47;;;-2.45;100.00
28588;BME280;15787;49.662;10.162;2023-01-19T07:21:13;98196.13;;;-2.32;100.00
28588;BME280;15787;49.662;10.162;2023-01-19T07:23:47;98193.50;;;-2.25;100.00
28588;BME280;15787;49.662;10.162;2023-01-19T07:26:20;98200.28;;;-2.15;100.00
28588;BME280;15787;49.662;10.162;2023-01-19T07:28:55;98206.28;;;-2.06;100.00
28588;BME280;15787;49.662;10.162;2023-01-19T07:31:28;98213.22;;;-2.12;100.00
28588;BME280;15787;49.662;10.162;2023-01-19T07:34:03;98206.16;;;-2.13;100.00
28588;BME280;15787;49.662;10.162;2023-01-19T07:36:37;98212.09;;;-2.08;99.46
28588;BME280;15787;49.662;10.162;2023-01-19T07:39:11;98220.38;;;-2.04;99.24
28588;BME280;15787;49.662;10.162;2023-01-19T07:41:46;98213.63;;;-2.10;99.38
28588;BME280;15787;49.662;10.162;2023-01-19T07:44:19;98212.91;;;-2.07;98.91
28588;BME280;15787;49.662;10.162;2023-01-19T07:46:52;98214.00;;;-2.12;99.42
28588;BME280;15787;49.662;10.162;2023-01-19T07:49:27;98211.00;;;-2.03;100.00
28588;BME280;15787;49.662;10.162;2023-01-19T07:52:00;98206.41;;;-1.96;100.00
28588;BME280;15787;49.662;10.162;2023-01-19T07:54:33;98203.84;;;-1.85;100.00
28588;BME280;15787;49.662;10.162;2023-01-19T07:57:06;98222.50;;;-1.91;99.97
28588;BME280;15787;49.662;10.162;2023-01-19T07:59:40;98223.00;;;-1.85;100.00
28588;BME280;15787;49.662;10.162;2023-01-19T08:02:13;98222.25;;;-1.52;99.33
28588;BME280;15787;49.662;10.162;2023-01-19T08:04:49;98228.34;;;-1.66;98.26
28588;BME280;15787;49.662;10.162;2023-01-19T08:07:23;98236.94;;;-1.38;98.25
28588;BME280;15787;49.662;10.162;2023-01-19T08:09:56;98233.34;;;-1.42;97.24
28588;BME280;15787;49.662;10.162;2023-01-19T08:12:29;98234.97;;;-1.37;97.24
28588;BME280;15787;49.662;10.162;2023-01-19T08:15:03;98237.72;;;-1.37;97.27
28588;BME280;15787;49.662;10.162;2023-01-19T08:17:37;98245.97;;;-1.34;98.24
28588;BME280;15787;49.662;10.162;2023-01-19T08:20:13;98249.13;;;-1.02;97.66
28588;BME280;15787;49.662;10.162;2023-01-19T08:22:46;98251.94;;;-0.95;96.87
28588;BME280;15787;49.662;10.162;2023-01-19T08:25:19;98261.94;;;-1.09;96.15
28588;BME280;15787;49.662;10.162;2023-01-19T08:27:53;98255.34;;;-1.05;96.32
28588;BME280;15787;49.662;10.162;2023-01-19T08:30:27;98253.59;;;-1.20;95.92
28588;BME280;15787;49.662;10.162;2023-01-19T08:33:01;98257.38;;;-0.98;96.86
28588;BME280;15787;49.662;10.162;2023-01-19T08:35:42;98253.72;;;-0.73;95.88
28588;BME280;15787;49.662;10.162;2023-01-19T08:38:16;98264.19;;;-0.45;94.49
28588;BME280;15787;49.662;10.162;2023-01-19T08:40:49;98262.19;;;-0.48;93.14
28588;BME280;15787;49.662;10.162;2023-01-19T08:43:23;98271.03;;;-0.28;93.07
28588;BME280;15787;49.662;10.162;2023-01-19T08:45:56;98273.78;;;-0.65;94.59
28588;BME280;15787;49.662;10.162;2023-01-19T08:48:30;98271.09;;;-0.21;95.28
28588;BME280;15787;49.662;10.162;2023-01-19T08:51:05;98265.47;;;-0.35;94.88
28588;BME280;15787;49.662;10.162;2023-01-19T08:53:38;98267.03;;;-0.34;94.52
28588;BME280;15787;49.662;10.162;2023-01-19T08:56:12;98273.13;;;-0.11;94.87
28588;BME280;15787;49.662;10.162;2023-01-19T08:58:46;98271.34;;;-0.37;95.48
28588;BME280;15787;49.662;10.162;2023-01-19T09:01:38;98269.28;;;0.00;94.74
28588;BME280;15787;49.662;10.162;2023-01-19T09:04:12;98286.59;;;0.05;95.02
28588;BME280;15787;49.662;10.162;2023-01-19T09:06:47;98286.47;;;0.41;93.55
28588;BME280;15787;49.662;10.162;2023-01-19T09:09:21;98274.63;;;0.34;93.45
28588;BME280;15787;49.662;10.162;2023-01-19T09:11:54;98279.66;;;0.21;93.78
28588;BME280;15787;49.662;10.162;2023-01-19T09:14:27;98286.53;;;0.52;92.93
28588;BME280;15787;49.662;10.162;2023-01-19T09:17:18;98289.75;;;0.61;92.50
28588;BME280;15787;49.662;10.162;2023-01-19T09:20:25;98291.22;;;0.51;94.28
28588;BME280;15787;49.662;10.162;2023-01-19T09:23:00;98292.28;;;0.29;94.69
28588;BME280;15787;49.662;10.162;2023-01-19T09:25:37;98286.28;;;0.17;95.30
28588;BME280;15787;49.662;10.162;2023-01-19T09:28:16;98284.81;;;0.30;95.69
28588;BME280;15787;49.662;10.162;2023-01-19T09:31:03;98279.69;;;0.28;95.86
28588;BME280;15787;49.662;10.162;2023-01-19T09:33:58;98267.31;;;0.52;95.85
28588;BME280;15787;49.662;10.162;2023-01-19T09:36:32;98280.38;;;0.73;95.99
28588;BME280;15787;49.662;10.162;2023-01-19T09:39:09;98269.44;;;0.83;95.00
28588;BME280;15787;49.662;10.162;2023-01-19T09:41:46;98270.22;;;0.80;95.30
28588;BME280;15787;49.662;10.162;2023-01-19T09:44:27;98265.25;;;1.17;94.95
28588;BME280;15787;49.662;10.162;2023-01-19T09:47:12;98276.47;;;0.77;93.95
28588;BME280;15787;49.662;10.162;2023-01-19T09:49:50;98267.06;;;0.82;93.92
28588;BME280;15787;49.662;10.162;2023-01-19T09:52:24;98272.63;;;0.99;93.99
28588;BME280;15787;49.662;10.162;2023-01-19T09:55:37;98273.06;;;1.12;93.17
28588;BME280;15787;49.662;10.162;2023-01-19T09:58:45;98273.97;;;1.48;91.82
28588;BME280;15787;49.662;10.162;2023-01-19T10:01:35;98269.81;;;0.82;92.12
28588;BME280;15787;49.662;10.162;2023-01-19T10:04:27;98267.78;;;0.64;93.10
28588;BME280;15787;49.662;10.162;2023-01-19T10:07:17;98263.59;;;0.88;93.87
28588;BME280;15787;49.662;10.162;2023-01-19T10:10:11;98272.28;;;1.08;93.38
28588;BME280;15787;49.662;10.162;2023-01-19T10:12:56;98276.28;;;1.21;92.32
28588;BME280;15787;49.662;10.162;2023-01-19T10:15:42;98277.47;;;1.38;91.91
28588;BME280;15787;49.662;10.162;2023-01-19T10:18:21;98279.06;;;1.39;91.63
28588;BME280;15787;49.662;10.162;2023-01-19T10:21:01;98282.94;;;1.16;91.87
28588;BME280;15787;49.662;10.162;2023-01-19T10:23:40;98290.03;;;1.24;92.34
28588;BME280;15787;49.662;10.162;2023-01-19T10:26:17;98282.16;;;1.16;92.24
28588;BME280;15787;49.662;10.162;2023-01-19T10:29:01;98295.22;;;1.58;91.58
28588;BME280;15787;49.662;10.162;2023-01-19T10:31:36;98288.47;;;1.23;92.66
28588;BME280;15787;49.662;10.162;2023-01-19T10:34:12;98290.78;;;1.11;92.40
28588;BME280;15787;49.662;10.162;2023-01-19T10:36:56;98292.66;;;1.00;92.97
28588;BME280;15787;49.662;10.162;2023-01-19T10:39:31;98299.84;;;1.22;93.05
28588;BME280;15787;49.662;10.162;2023-01-19T10:42:11;98282.88;;;1.02;93.30
28588;BME280;15787;49.662;10.162;2023-01-19T10:44:48;98290.38;;;1.12;93.74
28588;BME280;15787;49.662;10.162;2023-01-19T10:47:31;98294.38;;;1.29;93.23
28588;BME280;15787;49.662;10.162;2023-01-19T10:50:21;98295.16;;;1.26;92.68
28588;BME280;15787;49.662;10.162;2023-01-19T10:52:57;98284.50;;;1.17;92.39
28588;BME280;15787;49.662;10.162;2023-01-19T10:55:34;98287.31;;;1.35;92.90
28588;BME280;15787;49.662;10.162;2023-01-19T10:58:27;98285.72;;;1.31;92.59
28588;BME280;15787;49.662;10.162;2023-01-19T11:01:13;98286.00;;;1.01;93.11
28588;BME280;15787;49.662;10.162;2023-01-19T11:03:46;98286.91;;;1.30;93.08
28588;BME280;15787;49.662;10.162;2023-01-19T11:06:23;98287.66;;;1.23;92.51
28588;BME280;15787;49.662;10.162;2023-01-19T11:09:14;98287.25;;;1.14;92.66
28588;BME280;15787;49.662;10.162;2023-01-19T11:11:49;98292.41;;;1.26;92.61
28588;BME280;15787;49.662;10.162;2023-01-19T11:14:23;98299.41;;;1.13;92.76
28588;BME280;15787;49.662;10.162;2023-01-19T11:16:58;98285.81;;;1.66;92.37
28588;BME280;15787;49.662;10.162;2023-01-19T11:19:32;98290.41;;;1.23;92.24
28588;BME280;15787;49.662;10.162;2023-01-19T11:22:14;98279.66;;;0.90;92.13
28588;BME280;15787;49.662;10.162;2023-01-19T11:24:56;98284.94;;;1.26;92.44
28588;BME280;15787;49.662;10.162;2023-01-19T11:27:31;98276.72;;;1.37;92.14
28588;BME280;15787;49.662;10.162;2023-01-19T11:30:15;98279.91;;;1.50;92.14
28588;BME280;15787;49.662;10.162;2023-01-19T11:32:51;98273.22;;;1.61;91.44
28588;BME280;15787;49.662;10.162;2023-01-19T11:35:31;98281.06;;;1.42;90.38
28588;BME280;15787;49.662;10.162;2023-01-19T11:38:16;98284.63;;;1.56;90.36
28588;BME280;15787;49.662;10.162;2023-01-19T11:40:52;98281.47;;;1.47;90.40
28588;BME280;15787;49.662;10.162;2023-01-19T11:43:28;98288.56;;;1.59;90.35
28588;BME280;15787;49.662;10.162;2023-01-19T11:46:20;98283.06;;;1.66;90.65
28588;BME280;15787;49.662;10.162;2023-01-19T11:48:59;98275.88;;;1.22;90.04
28588;BME280;15787;49.662;10.162;2023-01-19T11:51:38;98268.84;;;1.43;90.16
28588;BME280;15787;49.662;10.162;2023-01-19T11:54:18;98273.59;;;1.56;90.44
28588;BME280;15787;49.662;10.162;2023-01-19T11:56:52;98258.69;;;1.71;90.03
28588;BME280;15787;49.662;10.162;2023-01-19T11:59:26;98268.56;;;1.97;88.64
28588;BME280;15787;49.662;10.162;2023-01-19T12:02:03;98265.03;;;2.11;87.28
28588;BME280;15787;49.662;10.162;2023-01-19T12:04:44;98264.97;;;2.53;86.89
28588;BME280;15787;49.662;10.162;2023-01-19T12:07:22;98254.16;;;3.15;85.70
28588;BME280;15787;49.662;10.162;2023-01-19T12:10:03;98266.47;;;2.75;83.65
28588;BME280;15787;49.662;10.162;2023-01-19T12:12:38;98270.78;;;2.83;83.32
28588;BME280;15787;49.662;10.162;2023-01-19T12:15:19;98273.63;;;2.59;83.65
28588;BME280;15787;49.662;10.162;2023-01-19T12:17:58;98266.56;;;2.12;84.24
28588;BME280;15787;49.662;10.162;2023-01-19T12:20:37;98269.69;;;2.56;84.88
28588;BME280;15787;49.662;10.162;2023-01-19T12:23:18;98272.84;;;2.37;84.14
28588;BME280;15787;49.662;10.162;2023-01-19T12:26:03;98276.78;;;2.39;84.45
28588;BME280;15787;49.662;10.162;2023-01-19T12:28:42;98268.94;;;2.31;84.92
28588;BME280;15787;49.662;10.162;2023-01-19T12:31:17;98282.69;;;1.99;86.14
28588;BME280;15787;49.662;10.162;2023-01-19T12:33:51;98284.69;;;2.02;86.22
28588;BME280;15787;49.662;10.162;2023-01-19T12:36:36;98285.00;;;1.44;86.88
28588;BME280;15787;49.662;10.162;2023-01-19T12:39:15;98281.53;;;1.82;88.08
28588;BME280;15787;49.662;10.162;2023-01-19T12:42:03;98281.09;;;1.66;88.47
28588;BME280;15787;49.662;10.162;2023-01-19T12:44:37;98268.94;;;1.67;88.74
28588;BME280;15787;49.662;10.162;2023-01-19T12:47:18;98272.50;;;1.85;89.20
28588;BME280;15787;49.662;10.162;2023-01-19T12:49:55;98272.03;;;1.59;88.87
28588;BME280;15787;49.662;10.162;2023-01-19T12:52:33;98270.50;;;1.75;89.07
28588;BME280;15787;49.662;10.162;2023-01-19T12:55:19;98282.19;;;1.34;89.96
28588;BME280;15787;49.662;10.162;2023-01-19T12:57:56;98275.56;;;1.49;90.38
28588;BME280;15787;49.662;10.162;2023-01-19T13:00:33;98276.72;;;1.37;90.70
28588;BME280;15787;49.662;10.162;2023-01-19T13:03:41;98271.28;;;1.79;90.95
28588;BME280;15787;49.662;10.162;2023-01-19T13:06:14;98272.03;;;1.59;90.90
28588;BME280;15787;49.662;10.162;2023-01-19T13:08:59;98259.50;;;1.89;91.20
28588;BME280;15787;49.662;10.162;2023-01-19T13:11:32;98262.66;;;1.95;90.56
28588;BME280;15787;49.662;10.162;2023-01-19T13:17:24;98260.25;;;1.76;91.08
28588;BME280;15787;49.662;10.162;2023-01-19T13:26:04;98259.88;;;1.74;91.22
28588;BME280;15787;49.662;10.162;2023-01-19T13:28:40;98263.41;;;1.67;91.38
28588;BME280;15787;49.662;10.162;2023-01-19T13:31:14;98261.44;;;1.71;90.86
28588;BME280;15787;49.662;10.162;2023-01-19T13:33:49;98261.03;;;1.59;91.00
28588;BME280;15787;49.662;10.162;2023-01-19T13:36:27;98261.81;;;1.42;92.11
28588;BME280;15787;49.662;10.162;2023-01-19T13:39:03;98271.22;;;1.41;91.44
28588;BME280;15787;49.662;10.162;2023-01-19T13:41:39;98268.84;;;1.43;92.07
28588;BME280;15787;49.662;10.162;2023-01-19T13:44:17;98268.09;;;1.53;91.77
28588;BME280;15787;49.662;10.162;2023-01-19T13:46:54;98269.28;;;1.59;92.18
28588;BME280;15787;49.662;10.162;2023-01-19T13:49:32;98265.34;;;1.46;91.57
28588;BME280;15787;49.662;10.162;2023-01-19T13:52:12;98265.00;;;1.65;91.78